Kunkle, Ohio
Current Conditions -  °F | °C
As of 3:15 PM on Sunday 21 Dec 2014 (Local Time) from KUSE Reporting Station
Broken Clouds Broken Clouds  
Wind Chill: 28°   Ceiling: 1900
Heat Index: 34°   Visibility: 7mi
Dew Point: 27°   Wind: 7mph
Humidity: 75%   Direction: 170°S
Pressure: 30.21"   Gusts: NA
Location:  41.64°N, 84.5°W
Report Text: KUSE 212015Z AUTO 17006KT 7SM BKN019 BKN055 01/M03 A3021 RMK AO2
Loading
Personal Weather Stations






























Interactive Weather Map New forecast layout! Learn more

10-Day Weather Forecast

Advertisements
Track Severe Weather on mobile